Elwyn Terrace, Pennsylvania
Current Conditions -  °F | °C
As of 9:24 PM on Sunday 25 Jan 2015 (Local Time) from KLNS Reporting Station
Light Snow Light Snow  
Wind Chill: 26°   Ceiling: 1000
Heat Index: 33°   Visibility: 2.5mi
Dew Point: 31°   Wind: 8mph
Humidity: 92%   Direction: 60°ENE
Pressure: 29.9"   Gusts: NA
Location:  40.1777°N, 76.4291°W
Report Text: KLNS 260224Z 06007KT 2 1/2SM -SN BR OVC010 01/M01 A2990 RMK AO2 RAE10SNB10 CIG 007V012 P0001 T00061006
Loading
Personal Weather Stations






























Interactive Weather Map New forecast layout! Learn more

10-Day Weather Forecast

Advertisements
Track Severe Weather on mobile